METAR Data
IDs: Format: Raw Decoded Include TAF

Data at: 0049 UTC 20 Jul 2019

METAR for:KGGI (Grinnell Rgnl, IA, US)
Text:KGGI 200035Z AUTO 19010G16KT 10SM CLR 32/26 A2974 RMK AO2 T03220256
Temperature: 32.2°C ( 90°F)
Dewpoint: 25.6°C ( 78°F) [RH = 68%]
Pressure (altimeter):29.74 inches Hg (1007.2 mb)
Winds:from the S (190 degrees) at 12 MPH (10 knots; 5.1 m/s) gusting to 18 MPH (16 knots; 8.2 m/s)
Visibility:10 or more sm (16+ km)
Ceiling:at least 12,000 feet AGL
Clouds:sky clear below 12,000 feet AGL
QC Flag:automated observation with no human augmentation